Time;durP1;ratioP1;P1;durP2;ratioP2;P2;SDS_P1;SDS_P2;PMS_P1;PMS_P2;Temp;Humidity;BMP_temperature;BMP_pressure;BME280_temperature;BME280_humidity;BME280_pressure;Samples;Min_cycle;Max_cycle;Signal;HPM_P1;HPM_P2
2023/01/09 00:02:03;;;;;;;3.53;0.95;;;;;;;4.27;100.00;98254.78;4994842;28;20044;-52
2023/01/09 00:04:29;;;;;;;10.20;1.33;;;;;;;4.28;100.00;98259.81;4990377;28;20046;-50
2023/01/09 00:06:55;;;;;;;1.45;0.38;;;;;;;4.21;100.00;98260.81;4988957;28;20498;-51
2023/01/09 00:09:22;;;;;;;2.58;1.08;;;;;;;4.10;100.00;98265.69;4991728;28;20027;-54
2023/01/09 00:11:47;;;;;;;1.85;0.35;;;;;;;4.05;100.00;98273.38;4990304;28;20113;-51
2023/01/09 00:14:14;;;;;;;3.45;0.47;;;;;;;3.93;100.00;98275.78;4989786;28;20502;-53
2023/01/09 00:16:40;;;;;;;1.20;0.35;;;;;;;3.85;100.00;98280.44;4992367;28;20045;-52
2023/01/09 00:19:05;;;;;;;6.32;1.05;;;;;;;3.82;100.00;98288.69;4991997;28;20030;-50
2023/01/09 00:21:31;;;;;;;1.00;0.22;;;;;;;3.82;100.00;98297.38;4995364;28;20538;-53
2023/01/09 00:23:56;;;;;;;4.63;0.85;;;;;;;3.83;100.00;98290.31;4992984;28;20057;-50
2023/01/09 00:26:22;;;;;;;4.95;0.73;;;;;;;3.85;100.00;98299.59;4996556;28;20092;-50
2023/01/09 00:28:49;;;;;;;2.55;1.33;;;;;;;3.88;100.00;98306.25;4988752;28;20387;-54
2023/01/09 00:31:16;;;;;;;6.47;1.73;;;;;;;3.84;100.00;98308.44;4990706;28;20073;-52
2023/01/09 00:33:45;;;;;;;4.20;1.05;;;;;;;3.83;100.00;98311.28;4995494;28;20033;-53
2023/01/09 00:36:10;;;;;;;1.90;0.70;;;;;;;3.89;100.00;98315.72;4992503;28;20514;-52
2023/01/09 00:38:36;;;;;;;2.83;0.82;;;;;;;3.99;100.00;98323.19;4991304;28;20038;-52
2023/01/09 00:41:04;;;;;;;6.15;1.17;;;;;;;4.02;100.00;98336.69;4990545;28;20034;-52
2023/01/09 00:43:34;;;;;;;3.67;0.47;;;;;;;4.01;100.00;98331.66;4990041;28;20092;-56
2023/01/09 00:46:04;;;;;;;6.53;0.63;;;;;;;4.03;100.00;98340.16;4993933;28;20033;-51
2023/01/09 00:48:32;;;;;;;1.35;0.10;;;;;;;4.05;100.00;98335.47;4996282;28;20125;-52
2023/01/09 00:50:58;;;;;;;1.48;1.10;;;;;;;4.00;100.00;98351.84;4996684;28;20049;-49
2023/01/09 00:53:31;;;;;;;3.80;0.15;;;;;;;4.01;100.00;98363.13;4998476;28;20484;-54
2023/01/09 00:56:03;;;;;;;5.40;1.00;;;;;;;4.13;100.00;98364.97;4992245;28;20045;-51
2023/01/09 00:58:30;;;;;;;11.45;0.40;;;;;;;4.28;100.00;98371.81;4991126;28;20058;-52
2023/01/09 01:00:56;;;;;;;2.95;0.68;;;;;;;4.42;100.00;98373.44;4989600;28;20034;-54
2023/01/09 01:03:21;;;;;;;8.38;1.95;;;;;;;4.52;100.00;98386.97;4992894;28;20080;-51
2023/01/09 01:08:30;;;;;;;1.38;0.20;;;;;;;4.92;100.00;98401.84;4990548;28;20127;-51
2023/01/09 01:10:55;;;;;;;4.65;0.35;;;;;;;5.03;100.00;98398.56;4989084;28;20480;-52
2023/01/09 01:13:21;;;;;;;1.08;0.10;;;;;;;5.03;100.00;98396.78;4997924;28;20526;-50
2023/01/09 01:15:46;;;;;;;2.28;0.35;;;;;;;5.21;100.00;98398.75;4987593;28;20042;-53
2023/01/09 01:18:12;;;;;;;5.30;0.32;;;;;;;5.34;100.00;98405.75;4992879;28;20061;-53
2023/01/09 01:20:42;;;;;;;1.02;0.35;;;;;;;5.36;100.00;98416.88;4991691;28;20029;-49
2023/01/09 01:23:08;;;;;;;1.17;0.00;;;;;;;5.27;100.00;98423.41;4987295;28;20110;-54
2023/01/09 01:25:38;;;;;;;2.50;0.10;;;;;;;5.20;100.00;98425.22;4993721;28;20516;-50
2023/01/09 01:28:05;;;;;;;3.63;0.25;;;;;;;5.20;100.00;98433.09;4989052;28;20384;-49
2023/01/09 01:30:30;;;;;;;1.65;0.10;;;;;;;5.26;100.00;98440.16;4987550;28;20022;-50
2023/01/09 01:32:56;;;;;;;2.25;0.50;;;;;;;5.25;100.00;98446.44;4987055;28;20094;-53
2023/01/09 01:35:21;;;;;;;2.90;0.28;;;;;;;5.39;100.00;98452.44;4988229;28;20065;-50
2023/01/09 01:37:48;;;;;;;3.90;0.22;;;;;;;5.34;100.00;98447.00;4997228;28;20073;-49
2023/01/09 01:40:14;;;;;;;1.25;0.10;;;;;;;5.41;100.00;98455.69;4989751;28;20038;-54
2023/01/09 01:42:48;;;;;;;1.65;0.60;;;;;;;5.49;100.00;98455.44;4991504;28;20073;-51
2023/01/09 01:45:25;;;;;;;2.40;1.45;;;;;;;5.55;100.00;98459.06;4988941;28;20029;-52
2023/01/09 01:48:03;;;;;;;2.13;0.25;;;;;;;5.44;100.00;98468.41;4982417;28;20035;-51
2023/01/09 01:50:47;;;;;;;3.97;0.20;;;;;;;5.35;100.00;98465.22;4988546;28;20132;-51
2023/01/09 01:53:12;;;;;;;4.18;0.10;;;;;;;5.33;100.00;98464.59;4987566;28;20018;-50
2023/01/09 01:55:42;;;;;;;5.03;0.08;;;;;;;5.30;100.00;98478.16;4989139;28;20026;-49
2023/01/09 01:58:10;;;;;;;0.40;0.40;;;;;;;5.17;100.00;98473.75;4991168;28;20049;-51
2023/01/09 02:00:43;;;;;;;1.00;0.00;;;;;;;5.14;100.00;98482.03;4989568;28;20373;-54
2023/01/09 02:03:09;;;;;;;0.75;0.03;;;;;;;5.17;100.00;98480.81;4991813;28;20034;-51
2023/01/09 02:05:36;;;;;;;2.60;0.32;;;;;;;5.13;100.00;98490.91;4989734;28;20049;-51
2023/01/09 02:08:03;;;;;;;8.70;0.30;;;;;;;5.12;100.00;98485.88;4988766;28;20030;-54
2023/01/09 02:10:29;;;;;;;1.85;0.05;;;;;;;4.95;100.00;98483.66;4997738;28;20120;-53
2023/01/09 02:12:54;;;;;;;0.35;0.10;;;;;;;4.73;100.00;98493.56;4992825;28;20049;-51
2023/01/09 02:15:20;;;;;;;1.23;0.10;;;;;;;4.57;100.00;98494.78;4994758;28;20027;-52
2023/01/09 02:17:58;;;;;;;6.07;0.20;;;;;;;4.62;100.00;98509.94;4993716;28;20076;-54
2023/01/09 02:20:36;;;;;;;1.60;0.00;;;;;;;4.52;100.00;98528.69;4992170;28;20057;-53
2023/01/09 02:23:44;;;;;;;3.50;0.65;;;;;;;4.56;100.00;98526.47;4991592;28;20032;-50
2023/01/09 02:26:19;;;;;;;1.17;0.17;;;;;;;4.42;100.00;98527.47;4988836;28;20084;-51
2023/01/09 02:28:53;;;;;;;0.95;0.85;;;;;;;4.69;100.00;98536.16;4990976;28;20040;-51
2023/01/09 02:31:29;;;;;;;5.35;0.25;;;;;;;4.64;100.00;98531.50;4989573;28;20037;-51
2023/01/09 02:34:11;;;;;;;1.92;0.00;;;;;;;4.55;100.00;98530.91;4992875;28;20672;-51
2023/01/09 02:36:54;;;;;;;2.55;0.82;;;;;;;4.42;100.00;98528.25;4992351;28;20411;-48
2023/01/09 02:39:35;;;;;;;2.20;0.15;;;;;;;4.28;100.00;98535.28;4992105;28;20038;-52
2023/01/09 02:42:12;;;;;;;2.00;0.20;;;;;;;4.17;100.00;98532.44;4987909;28;20485;-53
2023/01/09 02:44:41;;;;;;;0.47;0.10;;;;;;;4.02;100.00;98543.88;4992601;28;20038;-52
2023/01/09 02:47:22;;;;;;;0.22;0.10;;;;;;;4.00;100.00;98548.53;4998064;28;20471;-51
2023/01/09 02:49:55;;;;;;;1.25;0.22;;;;;;;3.88;100.00;98550.88;4985859;28;20025;-53
2023/01/09 02:52:46;;;;;;;0.85;0.00;;;;;;;3.82;100.00;98562.16;4989298;28;20142;-55
2023/01/09 02:55:26;;;;;;;0.10;0.10;;;;;;;3.83;100.00;98558.50;4989958;28;20038;-53
2023/01/09 02:58:15;;;;;;;0.05;0.00;;;;;;;3.68;100.00;98561.25;4989438;28;20531;-55
2023/01/09 03:00:53;;;;;;;2.83;0.22;;;;;;;3.61;100.00;98570.88;4989503;28;20126;-53
2023/01/09 03:03:37;;;;;;;1.25;0.10;;;;;;;3.54;100.00;98569.22;4995758;28;20289;-51
2023/01/09 03:06:45;;;;;;;1.48;0.20;;;;;;;3.51;100.00;98583.50;4992289;28;20029;-54
2023/01/09 03:09:19;;;;;;;3.35;0.43;;;;;;;3.39;100.00;98583.25;4985006;28;20417;-54
2023/01/09 03:11:53;;;;;;;1.75;0.25;;;;;;;3.45;100.00;98592.97;4995208;28;20061;-49
2023/01/09 03:14:22;;;;;;;5.20;0.55;;;;;;;3.46;100.00;98585.94;4994283;28;20052;-51
2023/01/09 03:16:54;;;;;;;0.32;0.00;;;;;;;3.42;100.00;98601.22;4992198;28;20042;-53
2023/01/09 03:19:22;;;;;;;4.53;0.00;;;;;;;3.44;100.00;98606.28;4990375;28;20027;-53
2023/01/09 03:21:49;;;;;;;0.10;0.10;;;;;;;3.31;100.00;98622.69;4997867;28;20472;-49
2023/01/09 03:24:14;;;;;;;0.40;0.25;;;;;;;3.43;100.00;98618.56;4989201;28;20398;-50
2023/01/09 03:26:40;;;;;;;2.33;0.03;;;;;;;3.44;100.00;98616.75;5000861;28;20038;-54
2023/01/09 03:29:05;;;;;;;0.15;0.10;;;;;;;3.36;100.00;98619.50;4991596;28;20034;-50
2023/01/09 03:31:30;;;;;;;4.13;0.82;;;;;;;3.28;100.00;98620.47;4993568;28;20102;-52
2023/01/09 03:33:56;;;;;;;0.22;0.10;;;;;;;3.40;100.00;98623.34;4986087;28;20033;-52
2023/01/09 03:36:23;;;;;;;3.75;0.15;;;;;;;3.68;100.00;98629.41;4991155;28;20138;-51
2023/01/09 03:38:50;;;;;;;2.20;0.03;;;;;;;3.75;100.00;98634.69;4987687;28;20030;-53
2023/01/09 03:41:15;;;;;;;4.95;0.85;;;;;;;3.70;100.00;98632.66;4991109;28;20034;-53
2023/01/09 03:43:41;;;;;;;0.20;0.05;;;;;;;3.80;100.00;98642.00;4995375;28;20025;-54
2023/01/09 03:46:06;;;;;;;1.92;0.08;;;;;;;3.67;100.00;98638.28;4993018;28;20357;-52
2023/01/09 03:48:31;;;;;;;2.28;0.00;;;;;;;3.52;100.00;98642.81;4989249;28;20744;-49
2023/01/09 03:50:57;;;;;;;2.10;0.20;;;;;;;3.47;100.00;98637.31;4987755;28;20034;-53
2023/01/09 03:53:25;;;;;;;4.32;0.10;;;;;;;3.53;100.00;98652.28;4991449;28;20460;-54
2023/01/09 03:55:53;;;;;;;1.10;0.30;;;;;;;3.66;100.00;98657.59;4993078;28;20034;-54
2023/01/09 03:58:20;;;;;;;0.32;0.17;;;;;;;3.91;100.00;98662.44;4985593;28;20411;-49
2023/01/09 04:00:47;;;;;;;1.83;0.20;;;;;;;4.09;100.00;98667.97;4988326;28;20088;-53
2023/01/09 04:03:14;;;;;;;5.57;0.10;;;;;;;4.22;100.00;98672.50;4990513;28;20041;-53
2023/01/09 04:05:39;;;;;;;0.30;0.20;;;;;;;4.21;100.00;98675.28;4985903;28;20022;-53
2023/01/09 04:08:04;;;;;;;1.58;0.00;;;;;;;4.36;100.00;98686.47;4983136;28;20034;-49
2023/01/09 04:10:30;;;;;;;2.83;0.30;;;;;;;4.43;100.00;98686.53;4983897;28;20117;-54
2023/01/09 04:12:55;;;;;;;2.08;0.10;;;;;;;4.40;100.00;98689.53;4989106;28;20045;-51
2023/01/09 04:15:21;;;;;;;8.38;0.38;;;;;;;4.32;100.00;98696.56;4985988;28;20117;-50
2023/01/09 04:17:46;;;;;;;1.17;0.43;;;;;;;4.35;100.00;98709.28;4989126;28;20058;-52
2023/01/09 04:20:12;;;;;;;3.63;0.82;;;;;;;4.44;100.00;98704.72;4991174;28;20117;-52
2023/01/09 04:22:38;;;;;;;7.47;1.75;;;;;;;4.40;100.00;98706.09;4977233;28;20490;-50
2023/01/09 04:25:04;;;;;;;2.20;0.10;;;;;;;4.42;100.00;98704.09;4985952;28;20109;-53
2023/01/09 04:27:29;;;;;;;3.00;1.00;;;;;;;4.09;100.00;98702.06;4994330;28;20101;-50
2023/01/09 04:29:55;;;;;;;3.63;0.25;;;;;;;3.98;100.00;98707.88;4991479;28;20041;-54
2023/01/09 04:32:20;;;;;;;5.28;0.38;;;;;;;4.04;100.00;98714.16;4986004;28;20077;-51
2023/01/09 04:34:46;;;;;;;1.75;0.10;;;;;;;3.91;100.00;98710.44;4988272;28;20121;-52
2023/01/09 04:37:11;;;;;;;3.67;0.20;;;;;;;3.99;100.00;98721.78;4986270;28;20033;-49
2023/01/09 04:39:37;;;;;;;6.30;0.25;;;;;;;4.21;100.00;98714.66;4986026;28;20041;-54
2023/01/09 04:42:02;;;;;;;0.30;0.00;;;;;;;4.32;100.00;98720.19;4988763;28;20033;-51
2023/01/09 04:44:28;;;;;;;2.05;0.65;;;;;;;4.22;100.00;98718.91;4982989;28;20046;-51
2023/01/09 04:46:55;;;;;;;2.15;0.38;;;;;;;4.05;100.00;98726.25;4991369;28;20042;-53
2023/01/09 04:49:21;;;;;;;2.53;0.13;;;;;;;4.05;100.00;98729.72;4989652;28;20112;-51
2023/01/09 04:51:47;;;;;;;1.48;0.10;;;;;;;3.89;100.00;98733.41;4984018;28;20088;-56
2023/01/09 04:54:13;;;;;;;5.72;0.85;;;;;;;3.81;100.00;98738.78;4991864;28;20101;-50
2023/01/09 04:56:38;;;;;;;1.10;0.28;;;;;;;3.90;100.00;98742.91;4995304;28;20030;-52
2023/01/09 04:59:05;;;;;;;5.03;0.50;;;;;;;3.90;100.00;98742.09;4994595;28;20026;-52
2023/01/09 05:01:31;;;;;;;5.50;0.55;;;;;;;4.00;100.00;98741.75;4989897;28;20030;-53
2023/01/09 05:03:56;;;;;;;1.50;0.20;;;;;;;4.13;100.00;98750.53;4993630;28;20034;-49
2023/01/09 05:06:22;;;;;;;13.85;0.52;;;;;;;4.03;100.00;98747.44;4988996;28;20098;-52
2023/01/09 05:08:47;;;;;;;6.65;0.50;;;;;;;4.09;100.00;98746.66;4990674;28;20038;-51
2023/01/09 05:11:12;;;;;;;0.45;0.00;;;;;;;4.29;100.00;98746.00;4989080;28;20057;-53
2023/01/09 05:13:38;;;;;;;3.78;1.15;;;;;;;4.14;100.00;98760.03;4977060;28;20492;-52
2023/01/09 05:16:03;;;;;;;1.75;0.10;;;;;;;3.98;100.00;98759.50;4992096;28;20102;-51
2023/01/09 05:18:29;;;;;;;4.05;0.50;;;;;;;3.86;100.00;98767.06;4990738;28;20034;-48
2023/01/09 05:20:54;;;;;;;2.17;1.02;;;;;;;3.69;100.00;98775.22;4986816;28;20384;-51
2023/01/09 05:23:19;;;;;;;4.70;0.73;;;;;;;3.68;100.00;98773.56;4990615;28;20035;-50
2023/01/09 05:25:45;;;;;;;6.43;1.00;;;;;;;3.65;100.00;98773.16;4989150;28;20046;-52
2023/01/09 05:28:10;;;;;;;5.90;0.28;;;;;;;3.64;100.00;98774.13;4998903;28;20023;-53
2023/01/09 05:30:35;;;;;;;3.78;0.45;;;;;;;3.72;100.00;98781.88;4987334;28;20045;-52
2023/01/09 05:33:01;;;;;;;1.75;0.73;;;;;;;3.83;100.00;98785.81;4988405;28;20026;-50
2023/01/09 05:35:26;;;;;;;0.82;0.55;;;;;;;3.88;100.00;98791.28;4991815;28;20457;-51
2023/01/09 05:37:52;;;;;;;4.57;0.95;;;;;;;3.79;100.00;98795.84;4989802;28;20031;-54
2023/01/09 05:40:17;;;;;;;1.40;0.45;;;;;;;3.80;100.00;98801.91;4992364;28;20036;-51
2023/01/09 05:42:44;;;;;;;1.85;0.63;;;;;;;3.86;100.00;98799.34;4997786;28;20034;-51
2023/01/09 05:45:10;;;;;;;10.13;0.75;;;;;;;3.89;100.00;98808.63;4995166;28;20542;-53
2023/01/09 05:47:35;;;;;;;2.00;0.10;;;;;;;3.97;100.00;98819.00;4992612;28;20466;-49
2023/01/09 05:50:01;;;;;;;9.52;0.43;;;;;;;4.03;100.00;98818.25;4988082;28;20087;-49
2023/01/09 05:52:26;;;;;;;2.45;0.45;;;;;;;4.02;100.00;98821.84;4990160;28;20078;-56
2023/01/09 05:54:52;;;;;;;1.38;0.75;;;;;;;3.96;100.00;98814.75;4993594;28;20088;-50
2023/01/09 05:57:17;;;;;;;4.57;0.98;;;;;;;3.81;100.00;98824.50;4985891;28;20408;-52
2023/01/09 05:59:42;;;;;;;3.55;0.30;;;;;;;3.59;100.00;98821.06;4992209;28;20038;-54
2023/01/09 06:02:08;;;;;;;0.95;0.20;;;;;;;3.63;100.00;98830.97;4989695;28;20022;-54
2023/01/09 06:04:33;;;;;;;5.15;0.50;;;;;;;3.47;100.00;98839.91;4990835;28;20034;-49
2023/01/09 06:06:58;;;;;;;5.18;0.80;;;;;;;3.49;100.00;98840.53;4989814;28;20030;-51
2023/01/09 06:09:24;;;;;;;11.82;0.68;;;;;;;3.45;100.00;98838.47;4992423;28;20236;-53
2023/01/09 06:11:49;;;;;;;2.70;0.17;;;;;;;3.26;100.00;98839.88;4989387;28;20473;-53
2023/01/09 06:14:15;;;;;;;2.60;0.40;;;;;;;3.14;100.00;98838.72;4995197;28;20041;-49
2023/01/09 06:16:40;;;;;;;2.60;0.80;;;;;;;3.26;100.00;98850.34;4986363;28;20019;-55
2023/01/09 06:19:06;;;;;;;7.55;0.60;;;;;;;3.35;100.00;98854.47;4980050;28;20499;-51
2023/01/09 06:21:32;;;;;;;3.25;0.63;;;;;;;3.45;100.00;98860.22;4987982;28;20077;-51
2023/01/09 06:23:57;;;;;;;1.10;0.20;;;;;;;3.40;100.00;98861.78;4990253;28;20034;-52
2023/01/09 06:26:26;;;;;;;1.55;0.40;;;;;;;3.42;100.00;98865.03;4987734;28;20533;-52
2023/01/09 06:28:54;;;;;;;2.45;0.00;;;;;;;3.38;100.00;98858.53;4985958;28;20066;-52
2023/01/09 06:31:20;;;;;;;3.50;0.10;;;;;;;3.36;100.00;98860.53;4988827;28;20058;-52
2023/01/09 06:33:45;;;;;;;5.40;0.30;;;;;;;3.40;100.00;98857.34;4991295;28;20384;-50
2023/01/09 06:36:11;;;;;;;4.13;0.40;;;;;;;3.43;100.00;98859.63;4985531;28;20030;-52
2023/01/09 06:38:36;;;;;;;6.50;0.40;;;;;;;3.39;100.00;98865.41;4991719;28;20601;-55
2023/01/09 06:41:01;;;;;;;2.42;0.00;;;;;;;3.44;100.00;98863.03;4985215;28;20034;-50
2023/01/09 06:43:27;;;;;;;2.38;0.77;;;;;;;3.52;100.00;98870.00;4989523;28;20026;-51
2023/01/09 06:45:52;;;;;;;0.60;0.13;;;;;;;3.41;100.00;98876.53;4988617;28;20034;-54
2023/01/09 06:48:18;;;;;;;2.83;0.75;;;;;;;3.35;100.00;98877.22;4992742;28;20030;-53
2023/01/09 06:50:44;;;;;;;2.83;1.00;;;;;;;3.40;100.00;98883.53;4986591;28;20139;-52
2023/01/09 06:53:10;;;;;;;1.77;0.43;;;;;;;3.22;100.00;98883.13;4983459;28;20427;-54
2023/01/09 06:55:35;;;;;;;3.20;0.20;;;;;;;3.01;100.00;98889.91;4989675;28;20034;-53
2023/01/09 06:58:00;;;;;;;7.95;1.50;;;;;;;2.86;100.00;98889.09;4988477;28;20023;-56
2023/01/09 07:00:26;;;;;;;2.55;0.25;;;;;;;2.96;100.00;98896.69;4988565;28;20113;-50
2023/01/09 07:02:51;;;;;;;2.05;0.03;;;;;;;3.04;100.00;98900.00;4994015;28;20058;-52
2023/01/09 07:05:17;;;;;;;4.22;0.43;;;;;;;3.20;100.00;98895.59;4993383;28;20054;-53
2023/01/09 07:07:42;;;;;;;1.27;0.85;;;;;;;3.19;100.00;98907.88;4989781;28;20120;-54
2023/01/09 07:10:09;;;;;;;0.55;0.15;;;;;;;3.02;100.00;98912.50;4991966;28;20383;-51
2023/01/09 07:12:34;;;;;;;4.53;0.20;;;;;;;2.83;100.00;98920.88;4991581;28;20062;-54
2023/01/09 07:15:00;;;;;;;4.63;0.43;;;;;;;2.77;100.00;98919.78;4995178;28;20113;-51
2023/01/09 07:17:25;;;;;;;2.38;0.47;;;;;;;2.76;100.00;98920.78;4993208;28;20034;-50
2023/01/09 07:19:50;;;;;;;1.35;0.10;;;;;;;2.74;100.00;98927.19;5000132;28;20650;-53
2023/01/09 07:22:16;;;;;;;1.05;0.95;;;;;;;2.73;100.00;98928.97;4988051;28;20085;-55
2023/01/09 07:24:43;;;;;;;8.60;0.35;;;;;;;2.77;100.00;98940.72;4986407;28;20041;-54
2023/01/09 07:27:09;;;;;;;5.88;0.82;;;;;;;2.76;100.00;98944.34;4987436;28;20442;-52
2023/01/09 07:29:34;;;;;;;8.52;0.63;;;;;;;2.75;100.00;98962.84;4982450;28;20062;-53
2023/01/09 07:31:59;;;;;;;5.28;1.45;;;;;;;2.95;100.00;98968.38;4989082;28;20068;-56
2023/01/09 07:34:25;;;;;;;4.43;0.38;;;;;;;2.88;100.00;98972.69;4985233;28;20093;-55
2023/01/09 07:36:50;;;;;;;6.68;0.70;;;;;;;2.87;100.00;98971.88;4990914;28;20023;-50
2023/01/09 07:39:16;;;;;;;9.73;0.60;;;;;;;2.75;100.00;98974.09;5003013;28;20480;-54
2023/01/09 07:41:41;;;;;;;4.57;1.08;;;;;;;2.79;100.00;98977.22;4986633;28;20101;-56
2023/01/09 07:44:06;;;;;;;4.60;0.70;;;;;;;2.88;100.00;98977.94;4985735;28;20023;-54
2023/01/09 07:46:32;;;;;;;1.60;0.68;;;;;;;2.92;100.00;98979.19;4984772;28;20419;-54
2023/01/09 07:48:58;;;;;;;5.88;1.20;;;;;;;2.87;100.00;98989.41;4984018;28;20500;-53
2023/01/09 07:51:23;;;;;;;5.05;1.55;;;;;;;2.75;100.00;98991.63;4987003;28;20084;-55
2023/01/09 07:53:48;;;;;;;1.38;0.20;;;;;;;2.84;100.00;98999.25;4991275;28;20150;-50
2023/01/09 07:56:14;;;;;;;3.55;0.32;;;;;;;3.17;100.00;99006.75;4994618;28;20469;-56
2023/01/09 07:58:39;;;;;;;11.48;1.60;;;;;;;3.50;100.00;99024.78;4987623;28;20471;-53
2023/01/09 08:01:05;;;;;;;6.72;1.33;;;;;;;3.68;100.00;99021.78;4991658;28;20091;-50
2023/01/09 08:03:32;;;;;;;10.02;2.10;;;;;;;3.85;100.00;99038.16;4993984;28;20126;-49
2023/01/09 08:05:58;;;;;;;4.20;0.45;;;;;;;3.96;100.00;99045.53;4992910;28;20038;-53
2023/01/09 08:08:23;;;;;;;1.25;1.00;;;;;;;4.01;100.00;99045.00;4993508;28;20030;-50
2023/01/09 08:10:49;;;;;;;16.65;3.03;;;;;;;4.02;100.00;99041.38;4986457;28;20034;-52
2023/01/09 08:13:14;;;;;;;5.85;1.13;;;;;;;4.02;100.00;99059.72;4989885;28;20074;-55
2023/01/09 08:15:40;;;;;;;13.20;1.25;;;;;;;3.91;100.00;99056.56;4989842;28;20079;-52
2023/01/09 08:18:05;;;;;;;1.35;0.10;;;;;;;4.03;100.00;99061.38;4983306;28;20948;-53
2023/01/09 08:20:31;;;;;;;7.93;2.47;;;;;;;4.05;100.00;99065.44;4985125;28;20034;-52
2023/01/09 08:22:56;;;;;;;2.50;0.80;;;;;;;4.06;100.00;99072.28;4983001;28;20041;-53
2023/01/09 08:25:22;;;;;;;4.28;0.68;;;;;;;4.23;100.00;99079.94;4984924;28;20042;-55
2023/01/09 08:27:48;;;;;;;4.15;0.95;;;;;;;4.17;100.00;99071.00;4992018;28;20022;-50
2023/01/09 08:30:14;;;;;;;3.97;0.40;;;;;;;4.06;100.00;99063.63;4992603;28;20538;-55
2023/01/09 08:32:40;;;;;;;7.38;0.95;;;;;;;4.04;100.00;99071.66;4990350;28;20043;-56
2023/01/09 08:35:06;;;;;;;10.23;1.08;;;;;;;4.10;100.00;99073.53;4989978;28;20037;-55
2023/01/09 08:37:31;;;;;;;6.78;0.63;;;;;;;4.27;100.00;99089.91;4995597;28;20430;-52
2023/01/09 08:39:57;;;;;;;1.33;0.80;;;;;;;4.51;100.00;99085.31;4996409;28;20095;-55
2023/01/09 08:47:53;;;;;;;7.13;0.95;;;;;;;5.00;100.00;99090.63;4984976;28;20048;-52
2023/01/09 08:50:18;;;;;;;3.80;0.43;;;;;;;5.02;100.00;99088.63;4985581;28;20027;-50
2023/01/09 08:52:43;;;;;;;12.77;1.38;;;;;;;5.08;100.00;99091.50;4972670;28;20047;-55
2023/01/09 08:55:09;;;;;;;2.85;0.47;;;;;;;5.25;100.00;99098.13;4977246;28;20512;-54
2023/01/09 08:57:34;;;;;;;3.38;0.38;;;;;;;5.33;100.00;99108.50;4975380;28;20865;-53
2023/01/09 09:00:00;;;;;;;6.60;1.27;;;;;;;5.37;100.00;99111.53;4977286;28;20037;-50
2023/01/09 09:02:25;;;;;;;5.28;0.32;;;;;;;5.47;100.00;99107.59;4974924;28;20184;-54
2023/01/09 09:04:52;;;;;;;3.55;0.35;;;;;;;5.57;100.00;99109.06;4972826;28;20034;-51
2023/01/09 09:07:25;;;;;;;1.45;1.35;;;;;;;5.73;100.00;99100.06;4976664;28;20281;-53
2023/01/09 09:09:52;;;;;;;8.38;1.27;;;;;;;5.87;100.00;99102.59;4974062;28;20030;-54
2023/01/09 09:12:17;;;;;;;2.60;0.10;;;;;;;5.77;100.00;99106.56;4973743;28;20050;-52
2023/01/09 09:17:27;;;;;;;3.17;0.95;;;;;;;5.87;100.00;99112.31;4976206;28;20467;-55
2023/01/09 09:19:53;;;;;;;7.05;0.82;;;;;;;5.84;100.00;99125.84;4977209;28;20127;-50
2023/01/09 09:22:18;;;;;;;8.15;1.40;;;;;;;5.94;100.00;99120.25;4972389;28;20531;-52
2023/01/09 09:24:44;;;;;;;5.85;0.70;;;;;;;5.87;100.00;99123.63;4979375;28;20022;-53
2023/01/09 09:27:09;;;;;;;4.25;1.15;;;;;;;5.72;100.00;99136.06;4985347;28;20464;-48
2023/01/09 09:29:34;;;;;;;0.30;0.10;;;;;;;5.68;100.00;99140.91;4986202;28;20148;-51
2023/01/09 09:32:00;;;;;;;5.70;0.47;;;;;;;5.82;100.00;99136.56;4985471;28;20444;-50
2023/01/09 09:34:25;;;;;;;15.63;2.47;;;;;;;5.94;100.00;99150.03;4981685;28;20455;-48
2023/01/09 09:36:50;;;;;;;6.20;1.95;;;;;;;6.01;100.00;99144.78;4981583;28;20034;-51
2023/01/09 09:39:16;;;;;;;9.45;1.48;;;;;;;5.95;100.00;99150.84;4982362;28;20022;-51
2023/01/09 09:45:27;;;;;;;0.57;0.32;;;;;;;6.12;100.00;99175.84;4983063;28;20084;-51
2023/01/09 09:48:06;;;;;;;3.72;1.00;;;;;;;6.18;100.00;99172.41;4979140;28;20546;-51
2023/01/09 09:50:43;;;;;;;3.53;0.75;;;;;;;6.18;100.00;99182.94;4980024;28;21081;-51
2023/01/09 09:53:21;;;;;;;5.65;2.70;;;;;;;6.14;100.00;99200.13;4978140;28;20076;-51
2023/01/09 09:55:49;;;;;;;9.88;3.03;;;;;;;6.14;100.00;99200.13;4980555;28;20027;-49
2023/01/09 09:58:14;;;;;;;6.18;0.15;;;;;;;6.20;100.00;99211.72;4978178;28;20026;-51
2023/01/09 10:00:40;;;;;;;3.00;0.20;;;;;;;6.22;100.00;99212.31;4979887;28;20030;-53
2023/01/09 10:03:14;;;;;;;1.65;0.10;;;;;;;6.24;100.00;99221.63;4980794;28;20513;-50
2023/01/09 10:05:44;;;;;;;0.22;0.10;;;;;;;6.36;100.00;99215.84;4981796;28;20038;-51
2023/01/09 10:08:33;;;;;;;5.03;0.55;;;;;;;6.50;100.00;99217.53;4984560;28;20073;-55
2023/01/09 10:10:59;;;;;;;1.70;0.30;;;;;;;6.58;100.00;99227.09;4978634;28;20102;-53
2023/01/09 10:16:30;;;;;;;4.82;1.25;;;;;;;6.55;100.00;99247.53;4981669;28;20324;-50
2023/01/09 10:19:18;;;;;;;1.75;0.70;;;;;;;6.37;100.00;99249.06;4980130;28;20159;-51
2023/01/09 10:22:09;;;;;;;1.27;0.38;;;;;;;6.38;100.00;99258.59;4979427;28;20058;-52
2023/01/09 10:24:49;;;;;;;0.43;0.35;;;;;;;6.39;100.00;99262.84;4982647;28;20117;-49
2023/01/09 10:27:28;;;;;;;1.70;0.65;;;;;;;6.57;100.00;99268.41;4983458;28;20084;-49
2023/01/09 10:30:16;;;;;;;2.15;0.70;;;;;;;6.70;100.00;99276.38;4979189;28;20050;-52
2023/01/09 10:33:13;;;;;;;0.75;0.15;;;;;;;6.63;100.00;99288.69;4983836;28;20097;-49
2023/01/09 10:35:44;;;;;;;1.13;0.10;;;;;;;6.62;100.00;99284.44;4984186;28;20428;-54
2023/01/09 10:38:14;;;;;;;2.95;0.60;;;;;;;6.76;100.00;99291.44;4986737;28;20626;-50
2023/01/09 10:40:50;;;;;;;1.08;0.40;;;;;;;6.93;100.00;99310.34;4982095;28;20069;-52
2023/01/09 10:43:47;;;;;;;0.95;0.85;;;;;;;6.97;100.00;99305.50;4988625;28;20038;-50
2023/01/09 10:46:25;;;;;;;0.95;0.80;;;;;;;7.04;100.00;99308.97;4983367;28;20037;-50
2023/01/09 10:48:58;;;;;;;1.52;1.10;;;;;;;7.14;100.00;99312.06;4985838;28;20381;-51
2023/01/09 10:51:33;;;;;;;0.60;0.10;;;;;;;7.19;100.00;99304.38;4985588;28;20740;-51
2023/01/09 10:53:59;;;;;;;1.23;0.13;;;;;;;7.36;100.00;99309.31;4994733;28;20041;-51
2023/01/09 10:56:33;;;;;;;1.10;0.73;;;;;;;7.24;100.00;99319.59;4985209;28;20419;-54
2023/01/09 10:58:59;;;;;;;0.68;0.15;;;;;;;7.42;100.00;99311.94;4984126;28;20023;-50
2023/01/09 11:01:28;;;;;;;12.07;3.17;;;;;;;7.48;100.00;99315.59;4984016;28;20399;-49
2023/01/09 11:03:53;;;;;;;0.70;0.00;;;;;;;7.52;100.00;99313.41;4986053;28;20161;-52
2023/01/09 11:06:24;;;;;;;2.15;0.40;;;;;;;7.53;100.00;99326.38;4976167;28;20030;-50
2023/01/09 11:08:54;;;;;;;3.47;0.35;;;;;;;7.45;100.00;99323.91;4988931;28;20042;-53
2023/01/09 11:11:40;;;;;;;3.83;1.10;;;;;;;7.50;100.00;99325.97;4982115;28;20540;-52
2023/01/09 11:14:13;;;;;;;4.38;2.17;;;;;;;7.55;100.00;99340.19;4986394;28;20114;-50
2023/01/09 11:16:51;;;;;;;0.85;0.03;;;;;;;7.62;100.00;99342.84;4983394;28;20105;-53
2023/01/09 11:19:16;;;;;;;9.40;1.20;;;;;;;7.73;100.00;99344.88;4983656;28;20392;-52
2023/01/09 11:21:43;;;;;;;4.85;0.90;;;;;;;7.83;100.00;99339.22;4982639;28;20027;-49
2023/01/09 11:24:17;;;;;;;5.90;0.25;;;;;;;7.91;100.00;99340.88;4982358;28;20030;-51
2023/01/09 11:26:43;;;;;;;0.65;0.30;;;;;;;7.89;100.00;99343.69;4983684;28;20032;-52
2023/01/09 11:29:14;;;;;;;1.75;0.00;;;;;;;8.00;100.00;99344.91;4981201;28;20117;-50
2023/01/09 11:31:41;;;;;;;0.20;0.00;;;;;;;8.07;100.00;99338.63;4976738;28;20081;-48
2023/01/09 11:34:19;;;;;;;0.55;0.13;;;;;;;7.99;100.00;99352.03;4986783;28;20049;-52
2023/01/09 11:36:46;;;;;;;1.10;0.47;;;;;;;7.87;100.00;99361.56;4982711;28;20022;-52
2023/01/09 11:39:26;;;;;;;4.97;0.17;;;;;;;7.95;100.00;99357.91;4984144;28;20038;-51
2023/01/09 11:41:57;;;;;;;2.57;1.03;;;;;;;8.04;100.00;99354.88;4979069;28;20038;-52
2023/01/09 11:44:23;;;;;;;3.30;2.15;;;;;;;8.11;100.00;99383.94;4978097;28;20038;-49
2023/01/09 11:46:49;;;;;;;0.45;0.20;;;;;;;8.21;100.00;99365.88;4982765;28;20031;-49
2023/01/09 11:49:14;;;;;;;9.93;3.70;;;;;;;8.24;100.00;99372.56;4983819;28;20041;-52
2023/01/09 11:51:41;;;;;;;4.93;1.90;;;;;;;8.27;100.00;99377.44;4985724;28;20070;-49
2023/01/09 11:54:18;;;;;;;3.30;0.40;;;;;;;8.22;100.00;99375.41;4984009;28;20092;-48
2023/01/09 11:56:45;;;;;;;0.30;0.30;;;;;;;8.21;100.00;99387.00;4986051;28;20034;-50
2023/01/09 11:59:20;;;;;;;1.10;0.65;;;;;;;8.18;100.00;99400.56;4985404;28;20423;-53